sensor_id;sensor_type;location;lat;lon;timestamp;P1;durP1;ratioP1;P2;durP2;ratioP2
27113;SDS011;14648;49.730;8.614;2023-02-15T00:02:18;34.70;;;14.93;;
27113;SDS011;14648;49.730;8.614;2023-02-15T00:04:45;36.40;;;15.30;;
27113;SDS011;14648;49.730;8.614;2023-02-15T00:07:17;27.20;;;15.13;;
27113;SDS011;14648;49.730;8.614;2023-02-15T00:09:47;30.90;;;15.83;;
27113;SDS011;14648;49.730;8.614;2023-02-15T00:12:13;32.47;;;15.50;;
27113;SDS011;14648;49.730;8.614;2023-02-15T00:14:40;32.27;;;14.10;;
27113;SDS011;14648;49.730;8.614;2023-02-15T00:17:07;37.70;;;15.17;;
27113;SDS011;14648;49.730;8.614;2023-02-15T00:19:34;32.63;;;15.30;;
27113;SDS011;14648;49.730;8.614;2023-02-15T00:22:00;34.30;;;13.53;;
27113;SDS011;14648;49.730;8.614;2023-02-15T00:24:26;27.70;;;14.23;;
27113;SDS011;14648;49.730;8.614;2023-02-15T00:26:52;29.20;;;15.10;;
27113;SDS011;14648;49.730;8.614;2023-02-15T00:29:18;30.30;;;15.03;;
27113;SDS011;14648;49.730;8.614;2023-02-15T00:31:44;27.37;;;13.97;;
27113;SDS011;14648;49.730;8.614;2023-02-15T00:34:12;27.83;;;14.03;;
27113;SDS011;14648;49.730;8.614;2023-02-15T00:36:40;31.83;;;13.77;;
27113;SDS011;14648;49.730;8.614;2023-02-15T00:39:07;32.13;;;14.20;;
27113;SDS011;14648;49.730;8.614;2023-02-15T00:41:33;35.90;;;15.80;;
27113;SDS011;14648;49.730;8.614;2023-02-15T00:43:59;30.17;;;14.40;;
27113;SDS011;14648;49.730;8.614;2023-02-15T00:46:25;25.17;;;13.20;;
27113;SDS011;14648;49.730;8.614;2023-02-15T00:48:51;30.93;;;13.93;;
27113;SDS011;14648;49.730;8.614;2023-02-15T00:51:17;24.53;;;13.10;;
27113;SDS011;14648;49.730;8.614;2023-02-15T00:53:43;32.20;;;14.13;;
27113;SDS011;14648;49.730;8.614;2023-02-15T00:56:09;25.93;;;13.47;;
27113;SDS011;14648;49.730;8.614;2023-02-15T00:58:36;26.10;;;13.53;;
27113;SDS011;14648;49.730;8.614;2023-02-15T01:01:05;28.70;;;14.00;;
27113;SDS011;14648;49.730;8.614;2023-02-15T01:03:38;30.27;;;13.87;;
27113;SDS011;14648;49.730;8.614;2023-02-15T01:06:09;30.63;;;14.33;;
27113;SDS011;14648;49.730;8.614;2023-02-15T01:08:36;34.50;;;16.13;;
27113;SDS011;14648;49.730;8.614;2023-02-15T01:11:03;32.70;;;14.40;;
27113;SDS011;14648;49.730;8.614;2023-02-15T01:13:31;52.77;;;15.60;;
27113;SDS011;14648;49.730;8.614;2023-02-15T01:15:58;31.77;;;15.23;;
27113;SDS011;14648;49.730;8.614;2023-02-15T01:18:24;45.17;;;15.67;;
27113;SDS011;14648;49.730;8.614;2023-02-15T01:20:52;45.60;;;14.17;;
27113;SDS011;14648;49.730;8.614;2023-02-15T01:23:18;73.67;;;15.70;;
27113;SDS011;14648;49.730;8.614;2023-02-15T01:25:45;29.27;;;14.40;;
27113;SDS011;14648;49.730;8.614;2023-02-15T01:28:10;30.07;;;13.43;;
27113;SDS011;14648;49.730;8.614;2023-02-15T01:30:36;29.43;;;12.83;;
27113;SDS011;14648;49.730;8.614;2023-02-15T01:33:05;29.30;;;13.20;;
27113;SDS011;14648;49.730;8.614;2023-02-15T01:35:31;51.07;;;15.07;;
27113;SDS011;14648;49.730;8.614;2023-02-15T01:37:59;35.07;;;13.10;;
27113;SDS011;14648;49.730;8.614;2023-02-15T01:40:25;26.93;;;13.57;;
27113;SDS011;14648;49.730;8.614;2023-02-15T01:42:51;35.77;;;15.60;;
27113;SDS011;14648;49.730;8.614;2023-02-15T01:45:26;74.60;;;16.60;;
27113;SDS011;14648;49.730;8.614;2023-02-15T01:48:02;27.27;;;14.10;;
27113;SDS011;14648;49.730;8.614;2023-02-15T01:53:25;33.77;;;14.87;;
27113;SDS011;14648;49.730;8.614;2023-02-15T01:55:58;29.10;;;15.13;;
27113;SDS011;14648;49.730;8.614;2023-02-15T01:58:29;29.83;;;14.17;;
27113;SDS011;14648;49.730;8.614;2023-02-15T02:00:58;28.50;;;13.40;;
27113;SDS011;14648;49.730;8.614;2023-02-15T02:06:16;82.33;;;16.77;;
27113;SDS011;14648;49.730;8.614;2023-02-15T02:08:42;76.17;;;15.20;;
27113;SDS011;14648;49.730;8.614;2023-02-15T02:11:10;98.67;;;17.90;;
27113;SDS011;14648;49.730;8.614;2023-02-15T02:13:38;94.30;;;16.03;;
27113;SDS011;14648;49.730;8.614;2023-02-15T02:16:11;28.57;;;13.70;;
27113;SDS011;14648;49.730;8.614;2023-02-15T02:18:51;39.40;;;14.83;;
27113;SDS011;14648;49.730;8.614;2023-02-15T02:24:58;36.47;;;13.47;;
27113;SDS011;14648;49.730;8.614;2023-02-15T02:33:45;37.17;;;14.70;;
27113;SDS011;14648;49.730;8.614;2023-02-15T02:44:35;27.70;;;12.00;;
27113;SDS011;14648;49.730;8.614;2023-02-15T02:47:12;24.57;;;13.47;;
27113;SDS011;14648;49.730;8.614;2023-02-15T02:49:51;28.37;;;12.83;;
27113;SDS011;14648;49.730;8.614;2023-02-15T02:55:13;31.50;;;13.30;;
27113;SDS011;14648;49.730;8.614;2023-02-15T03:01:05;26.93;;;13.07;;
27113;SDS011;14648;49.730;8.614;2023-02-15T03:03:49;88.27;;;15.37;;
27113;SDS011;14648;49.730;8.614;2023-02-15T03:06:19;31.00;;;14.73;;
27113;SDS011;14648;49.730;8.614;2023-02-15T03:08:54;26.30;;;12.50;;
27113;SDS011;14648;49.730;8.614;2023-02-15T03:11:28;30.00;;;13.40;;
27113;SDS011;14648;49.730;8.614;2023-02-15T03:13:54;29.80;;;13.40;;
27113;SDS011;14648;49.730;8.614;2023-02-15T03:16:21;32.37;;;13.93;;
27113;SDS011;14648;49.730;8.614;2023-02-15T03:21:40;39.80;;;13.40;;
27113;SDS011;14648;49.730;8.614;2023-02-15T03:24:23;67.80;;;13.47;;
27113;SDS011;14648;49.730;8.614;2023-02-15T03:26:54;37.53;;;13.87;;
27113;SDS011;14648;49.730;8.614;2023-02-15T03:29:22;30.03;;;14.17;;
27113;SDS011;14648;49.730;8.614;2023-02-15T03:31:58;29.47;;;12.40;;
27113;SDS011;14648;49.730;8.614;2023-02-15T03:34:27;26.43;;;11.87;;
27113;SDS011;14648;49.730;8.614;2023-02-15T03:37:03;28.40;;;13.53;;
27113;SDS011;14648;49.730;8.614;2023-02-15T03:39:44;44.53;;;14.57;;
27113;SDS011;14648;49.730;8.614;2023-02-15T03:42:17;32.30;;;12.40;;
27113;SDS011;14648;49.730;8.614;2023-02-15T03:47:31;51.33;;;13.63;;
27113;SDS011;14648;49.730;8.614;2023-02-15T03:52:54;36.93;;;12.90;;
27113;SDS011;14648;49.730;8.614;2023-02-15T03:55:22;39.63;;;12.70;;
27113;SDS011;14648;49.730;8.614;2023-02-15T03:57:48;30.33;;;12.80;;
27113;SDS011;14648;49.730;8.614;2023-02-15T04:00:34;30.80;;;12.77;;
27113;SDS011;14648;49.730;8.614;2023-02-15T04:03:29;32.63;;;13.90;;
27113;SDS011;14648;49.730;8.614;2023-02-15T04:06:06;27.00;;;11.77;;
27113;SDS011;14648;49.730;8.614;2023-02-15T04:08:32;26.20;;;12.43;;
27113;SDS011;14648;49.730;8.614;2023-02-15T04:11:16;28.37;;;12.20;;
27113;SDS011;14648;49.730;8.614;2023-02-15T04:13:42;42.07;;;12.83;;
27113;SDS011;14648;49.730;8.614;2023-02-15T04:16:07;27.00;;;11.97;;
27113;SDS011;14648;49.730;8.614;2023-02-15T04:18:38;28.00;;;12.70;;
27113;SDS011;14648;49.730;8.614;2023-02-15T04:21:25;27.20;;;13.27;;
27113;SDS011;14648;49.730;8.614;2023-02-15T04:24:13;39.97;;;15.37;;
27113;SDS011;14648;49.730;8.614;2023-02-15T04:26:58;27.50;;;12.50;;
27113;SDS011;14648;49.730;8.614;2023-02-15T04:29:25;25.40;;;13.27;;
27113;SDS011;14648;49.730;8.614;2023-02-15T04:31:53;27.73;;;13.03;;
27113;SDS011;14648;49.730;8.614;2023-02-15T04:34:24;25.27;;;11.97;;
27113;SDS011;14648;49.730;8.614;2023-02-15T04:36:50;21.50;;;11.40;;
27113;SDS011;14648;49.730;8.614;2023-02-15T04:39:17;25.90;;;11.80;;
27113;SDS011;14648;49.730;8.614;2023-02-15T04:41:43;20.70;;;11.40;;
27113;SDS011;14648;49.730;8.614;2023-02-15T04:44:10;22.30;;;11.33;;
27113;SDS011;14648;49.730;8.614;2023-02-15T04:46:35;25.87;;;10.90;;
27113;SDS011;14648;49.730;8.614;2023-02-15T04:49:02;19.20;;;10.97;;
27113;SDS011;14648;49.730;8.614;2023-02-15T04:51:28;21.03;;;10.27;;
27113;SDS011;14648;49.730;8.614;2023-02-15T04:53:53;17.93;;;10.13;;
27113;SDS011;14648;49.730;8.614;2023-02-15T04:56:20;21.67;;;11.07;;
27113;SDS011;14648;49.730;8.614;2023-02-15T04:58:46;20.70;;;9.43;;
27113;SDS011;14648;49.730;8.614;2023-02-15T05:01:12;20.83;;;10.10;;
27113;SDS011;14648;49.730;8.614;2023-02-15T05:03:38;18.40;;;10.10;;
27113;SDS011;14648;49.730;8.614;2023-02-15T05:06:04;25.10;;;11.30;;
27113;SDS011;14648;49.730;8.614;2023-02-15T05:08:30;30.20;;;11.57;;
27113;SDS011;14648;49.730;8.614;2023-02-15T05:10:56;25.90;;;12.23;;
27113;SDS011;14648;49.730;8.614;2023-02-15T05:13:22;30.80;;;12.20;;
27113;SDS011;14648;49.730;8.614;2023-02-15T05:15:49;23.27;;;11.33;;
27113;SDS011;14648;49.730;8.614;2023-02-15T05:18:17;29.57;;;13.00;;
27113;SDS011;14648;49.730;8.614;2023-02-15T05:20:45;26.23;;;13.57;;
27113;SDS011;14648;49.730;8.614;2023-02-15T05:23:11;31.30;;;14.90;;
27113;SDS011;14648;49.730;8.614;2023-02-15T05:25:37;27.77;;;12.87;;
27113;SDS011;14648;49.730;8.614;2023-02-15T05:28:21;33.77;;;12.67;;
27113;SDS011;14648;49.730;8.614;2023-02-15T05:30:49;34.23;;;14.50;;
27113;SDS011;14648;49.730;8.614;2023-02-15T05:33:35;28.33;;;12.87;;
27113;SDS011;14648;49.730;8.614;2023-02-15T05:36:01;34.60;;;12.83;;
27113;SDS011;14648;49.730;8.614;2023-02-15T05:38:28;38.27;;;15.13;;
27113;SDS011;14648;49.730;8.614;2023-02-15T05:40:54;36.83;;;16.73;;
27113;SDS011;14648;49.730;8.614;2023-02-15T05:43:20;37.57;;;14.93;;
27113;SDS011;14648;49.730;8.614;2023-02-15T05:45:50;31.13;;;15.00;;
27113;SDS011;14648;49.730;8.614;2023-02-15T05:48:19;32.93;;;14.60;;
27113;SDS011;14648;49.730;8.614;2023-02-15T05:50:56;32.70;;;15.20;;
27113;SDS011;14648;49.730;8.614;2023-02-15T05:53:32;45.13;;;16.13;;
27113;SDS011;14648;49.730;8.614;2023-02-15T05:56:01;38.07;;;15.33;;
27113;SDS011;14648;49.730;8.614;2023-02-15T05:58:29;30.93;;;13.70;;
27113;SDS011;14648;49.730;8.614;2023-02-15T06:01:11;30.80;;;14.10;;
27113;SDS011;14648;49.730;8.614;2023-02-15T06:03:39;36.30;;;14.63;;
27113;SDS011;14648;49.730;8.614;2023-02-15T06:06:07;31.60;;;13.93;;
27113;SDS011;14648;49.730;8.614;2023-02-15T06:08:36;35.10;;;15.60;;
27113;SDS011;14648;49.730;8.614;2023-02-15T06:11:03;29.77;;;13.90;;
27113;SDS011;14648;49.730;8.614;2023-02-15T06:13:30;31.07;;;15.07;;
27113;SDS011;14648;49.730;8.614;2023-02-15T06:15:57;26.53;;;13.20;;
27113;SDS011;14648;49.730;8.614;2023-02-15T06:18:22;31.47;;;13.60;;
27113;SDS011;14648;49.730;8.614;2023-02-15T06:20:48;33.70;;;14.70;;
27113;SDS011;14648;49.730;8.614;2023-02-15T06:23:14;31.10;;;13.33;;
27113;SDS011;14648;49.730;8.614;2023-02-15T06:25:40;33.07;;;12.90;;
27113;SDS011;14648;49.730;8.614;2023-02-15T06:28:06;33.87;;;14.40;;
27113;SDS011;14648;49.730;8.614;2023-02-15T06:30:32;33.47;;;13.43;;
27113;SDS011;14648;49.730;8.614;2023-02-15T06:32:58;35.30;;;13.73;;
27113;SDS011;14648;49.730;8.614;2023-02-15T06:35:24;33.77;;;13.70;;
27113;SDS011;14648;49.730;8.614;2023-02-15T06:37:49;28.17;;;13.13;;
27113;SDS011;14648;49.730;8.614;2023-02-15T06:40:15;29.97;;;13.67;;
27113;SDS011;14648;49.730;8.614;2023-02-15T06:42:45;27.17;;;13.40;;
27113;SDS011;14648;49.730;8.614;2023-02-15T06:45:13;31.83;;;14.10;;
27113;SDS011;14648;49.730;8.614;2023-02-15T06:47:39;34.50;;;13.37;;
27113;SDS011;14648;49.730;8.614;2023-02-15T06:50:05;29.10;;;13.60;;
27113;SDS011;14648;49.730;8.614;2023-02-15T06:52:32;36.43;;;12.77;;
27113;SDS011;14648;49.730;8.614;2023-02-15T06:54:58;27.83;;;12.67;;
27113;SDS011;14648;49.730;8.614;2023-02-15T06:57:26;29.27;;;13.60;;
27113;SDS011;14648;49.730;8.614;2023-02-15T06:59:52;23.50;;;11.30;;
27113;SDS011;14648;49.730;8.614;2023-02-15T07:02:18;28.23;;;13.20;;
27113;SDS011;14648;49.730;8.614;2023-02-15T07:04:45;34.87;;;12.90;;
27113;SDS011;14648;49.730;8.614;2023-02-15T07:07:11;24.80;;;10.40;;
27113;SDS011;14648;49.730;8.614;2023-02-15T07:09:38;25.43;;;11.73;;
27113;SDS011;14648;49.730;8.614;2023-02-15T07:12:04;26.07;;;11.07;;
27113;SDS011;14648;49.730;8.614;2023-02-15T07:14:51;28.37;;;12.70;;
27113;SDS011;14648;49.730;8.614;2023-02-15T07:17:17;37.13;;;13.53;;
27113;SDS011;14648;49.730;8.614;2023-02-15T07:19:43;33.47;;;11.80;;
27113;SDS011;14648;49.730;8.614;2023-02-15T07:22:09;37.43;;;14.83;;
27113;SDS011;14648;49.730;8.614;2023-02-15T07:24:34;26.60;;;12.10;;
27113;SDS011;14648;49.730;8.614;2023-02-15T07:27:00;30.60;;;13.30;;
27113;SDS011;14648;49.730;8.614;2023-02-15T07:29:27;39.73;;;13.07;;
27113;SDS011;14648;49.730;8.614;2023-02-15T07:31:54;31.83;;;14.30;;
27113;SDS011;14648;49.730;8.614;2023-02-15T07:34:21;24.80;;;10.90;;
27113;SDS011;14648;49.730;8.614;2023-02-15T07:36:47;34.03;;;14.50;;
27113;SDS011;14648;49.730;8.614;2023-02-15T07:39:15;32.20;;;12.47;;
27113;SDS011;14648;49.730;8.614;2023-02-15T07:41:44;25.07;;;11.63;;
27113;SDS011;14648;49.730;8.614;2023-02-15T07:44:13;35.70;;;15.10;;
27113;SDS011;14648;49.730;8.614;2023-02-15T07:46:39;22.00;;;11.03;;
27113;SDS011;14648;49.730;8.614;2023-02-15T07:49:05;29.40;;;13.07;;
27113;SDS011;14648;49.730;8.614;2023-02-15T07:51:32;27.43;;;12.60;;
27113;SDS011;14648;49.730;8.614;2023-02-15T07:53:57;31.77;;;12.50;;
27113;SDS011;14648;49.730;8.614;2023-02-15T07:56:23;27.17;;;12.27;;
27113;SDS011;14648;49.730;8.614;2023-02-15T07:58:49;25.30;;;13.67;;
27113;SDS011;14648;49.730;8.614;2023-02-15T08:03:52;27.57;;;12.67;;
27113;SDS011;14648;49.730;8.614;2023-02-15T08:06:19;27.00;;;11.67;;
27113;SDS011;14648;49.730;8.614;2023-02-15T08:08:48;32.70;;;14.80;;
27113;SDS011;14648;49.730;8.614;2023-02-15T08:11:26;30.40;;;12.00;;
27113;SDS011;14648;49.730;8.614;2023-02-15T08:14:01;35.20;;;14.90;;
27113;SDS011;14648;49.730;8.614;2023-02-15T08:16:34;40.03;;;13.77;;
27113;SDS011;14648;49.730;8.614;2023-02-15T08:19:04;27.63;;;12.30;;
27113;SDS011;14648;49.730;8.614;2023-02-15T08:21:38;28.57;;;12.00;;
27113;SDS011;14648;49.730;8.614;2023-02-15T08:24:11;29.23;;;13.23;;
27113;SDS011;14648;49.730;8.614;2023-02-15T08:26:39;25.27;;;12.40;;
27113;SDS011;14648;49.730;8.614;2023-02-15T08:31:36;23.00;;;11.23;;
27113;SDS011;14648;49.730;8.614;2023-02-15T08:34:02;27.77;;;13.07;;
27113;SDS011;14648;49.730;8.614;2023-02-15T08:36:29;27.50;;;13.33;;
27113;SDS011;14648;49.730;8.614;2023-02-15T08:39:00;26.57;;;12.13;;
27113;SDS011;14648;49.730;8.614;2023-02-15T08:41:35;27.83;;;13.30;;
27113;SDS011;14648;49.730;8.614;2023-02-15T08:44:03;32.70;;;12.00;;
27113;SDS011;14648;49.730;8.614;2023-02-15T08:46:32;21.07;;;12.83;;
27113;SDS011;14648;49.730;8.614;2023-02-15T08:49:02;25.90;;;12.57;;
27113;SDS011;14648;49.730;8.614;2023-02-15T08:51:35;24.97;;;12.43;;
27113;SDS011;14648;49.730;8.614;2023-02-15T08:54:03;26.23;;;12.07;;
27113;SDS011;14648;49.730;8.614;2023-02-15T08:56:35;24.53;;;10.47;;
27113;SDS011;14648;49.730;8.614;2023-02-15T08:59:05;32.63;;;14.63;;
27113;SDS011;14648;49.730;8.614;2023-02-15T09:01:32;29.00;;;12.17;;
27113;SDS011;14648;49.730;8.614;2023-02-15T09:04:00;21.40;;;11.20;;
27113;SDS011;14648;49.730;8.614;2023-02-15T09:06:29;26.80;;;13.70;;
27113;SDS011;14648;49.730;8.614;2023-02-15T09:08:56;25.53;;;12.27;;
27113;SDS011;14648;49.730;8.614;2023-02-15T09:11:26;28.87;;;13.40;;
27113;SDS011;14648;49.730;8.614;2023-02-15T09:14:00;25.77;;;12.87;;
27113;SDS011;14648;49.730;8.614;2023-02-15T09:16:30;23.20;;;11.53;;
27113;SDS011;14648;49.730;8.614;2023-02-15T09:18:59;27.37;;;11.70;;
27113;SDS011;14648;49.730;8.614;2023-02-15T09:21:27;21.90;;;11.27;;
27113;SDS011;14648;49.730;8.614;2023-02-15T09:23:58;24.50;;;11.17;;
27113;SDS011;14648;49.730;8.614;2023-02-15T09:26:40;23.30;;;11.50;;
27113;SDS011;14648;49.730;8.614;2023-02-15T09:29:12;31.80;;;13.13;;
27113;SDS011;14648;49.730;8.614;2023-02-15T09:31:40;25.40;;;12.03;;
27113;SDS011;14648;49.730;8.614;2023-02-15T09:34:10;31.23;;;13.43;;
27113;SDS011;14648;49.730;8.614;2023-02-15T09:36:38;27.50;;;12.70;;
27113;SDS011;14648;49.730;8.614;2023-02-15T09:39:07;32.23;;;13.27;;
27113;SDS011;14648;49.730;8.614;2023-02-15T09:45:09;25.17;;;13.17;;
27113;SDS011;14648;49.730;8.614;2023-02-15T09:48:39;32.50;;;14.53;;
27113;SDS011;14648;49.730;8.614;2023-02-15T09:51:22;31.83;;;14.10;;
27113;SDS011;14648;49.730;8.614;2023-02-15T09:57:37;26.50;;;12.60;;
27113;SDS011;14648;49.730;8.614;2023-02-15T10:03:04;29.13;;;14.90;;
27113;SDS011;14648;49.730;8.614;2023-02-15T10:06:42;27.93;;;12.47;;
27113;SDS011;14648;49.730;8.614;2023-02-15T10:08:55;28.57;;;14.20;;
27113;SDS011;14648;49.730;8.614;2023-02-15T10:18:00;33.63;;;14.27;;
27113;SDS011;14648;49.730;8.614;2023-02-15T10:26:50;41.70;;;18.47;;
27113;SDS011;14648;49.730;8.614;2023-02-15T10:29:29;43.37;;;18.63;;
27113;SDS011;14648;49.730;8.614;2023-02-15T10:34:56;40.93;;;18.00;;
27113;SDS011;14648;49.730;8.614;2023-02-15T10:44:08;44.70;;;19.27;;
27113;SDS011;14648;49.730;8.614;2023-02-15T10:50:11;40.27;;;17.93;;
27113;SDS011;14648;49.730;8.614;2023-02-15T10:53:32;38.57;;;16.63;;
27113;SDS011;14648;49.730;8.614;2023-02-15T11:01:56;36.60;;;18.37;;
27113;SDS011;14648;49.730;8.614;2023-02-15T11:08:07;53.77;;;22.87;;
27113;SDS011;14648;49.730;8.614;2023-02-15T11:10:37;54.33;;;23.30;;
27113;SDS011;14648;49.730;8.614;2023-02-15T11:13:18;49.07;;;21.23;;
27113;SDS011;14648;49.730;8.614;2023-02-15T11:15:51;51.30;;;22.80;;
27113;SDS011;14648;49.730;8.614;2023-02-15T11:18:26;47.77;;;22.70;;
27113;SDS011;14648;49.730;8.614;2023-02-15T11:21:21;54.03;;;23.40;;
27113;SDS011;14648;49.730;8.614;2023-02-15T11:23:51;51.03;;;22.40;;
27113;SDS011;14648;49.730;8.614;2023-02-15T11:26:28;48.20;;;21.37;;
27113;SDS011;14648;49.730;8.614;2023-02-15T11:29:07;54.03;;;21.57;;
27113;SDS011;14648;49.730;8.614;2023-02-15T11:31:59;42.87;;;19.97;;
27113;SDS011;14648;49.730;8.614;2023-02-15T11:34:48;48.50;;;21.53;;
27113;SDS011;14648;49.730;8.614;2023-02-15T11:37:28;46.70;;;21.70;;
27113;SDS011;14648;49.730;8.614;2023-02-15T11:40:02;50.73;;;21.00;;
27113;SDS011;14648;49.730;8.614;2023-02-15T11:42:45;47.90;;;20.97;;
27113;SDS011;14648;49.730;8.614;2023-02-15T11:45:18;44.17;;;19.63;;
27113;SDS011;14648;49.730;8.614;2023-02-15T11:47:56;35.90;;;18.97;;
27113;SDS011;14648;49.730;8.614;2023-02-15T11:50:25;47.70;;;20.07;;
27113;SDS011;14648;49.730;8.614;2023-02-15T11:52:56;39.53;;;19.93;;
27113;SDS011;14648;49.730;8.614;2023-02-15T11:55:27;39.27;;;18.23;;
27113;SDS011;14648;49.730;8.614;2023-02-15T12:00:49;41.77;;;18.83;;
27113;SDS011;14648;49.730;8.614;2023-02-15T12:03:39;43.10;;;17.97;;
27113;SDS011;14648;49.730;8.614;2023-02-15T12:06:18;38.50;;;17.50;;
27113;SDS011;14648;49.730;8.614;2023-02-15T12:11:45;36.73;;;18.43;;
27113;SDS011;14648;49.730;8.614;2023-02-15T12:14:12;45.53;;;20.10;;
27113;SDS011;14648;49.730;8.614;2023-02-15T12:16:44;35.80;;;16.03;;
27113;SDS011;14648;49.730;8.614;2023-02-15T12:19:13;40.03;;;20.07;;
27113;SDS011;14648;49.730;8.614;2023-02-15T12:21:48;36.47;;;18.07;;
27113;SDS011;14648;49.730;8.614;2023-02-15T12:24:28;36.10;;;19.20;;
27113;SDS011;14648;49.730;8.614;2023-02-15T12:29:39;35.47;;;17.83;;
27113;SDS011;14648;49.730;8.614;2023-02-15T12:32:19;33.50;;;17.63;;
27113;SDS011;14648;49.730;8.614;2023-02-15T12:34:51;35.93;;;17.93;;
27113;SDS011;14648;49.730;8.614;2023-02-15T12:37:27;33.07;;;16.07;;
27113;SDS011;14648;49.730;8.614;2023-02-15T12:40:00;38.50;;;18.20;;
27113;SDS011;14648;49.730;8.614;2023-02-15T12:42:44;41.43;;;18.40;;
27113;SDS011;14648;49.730;8.614;2023-02-15T12:50:44;33.70;;;17.53;;
27113;SDS011;14648;49.730;8.614;2023-02-15T12:56:08;40.33;;;17.80;;
27113;SDS011;14648;49.730;8.614;2023-02-15T13:01:18;39.07;;;20.00;;
27113;SDS011;14648;49.730;8.614;2023-02-15T13:03:54;45.10;;;18.53;;
27113;SDS011;14648;49.730;8.614;2023-02-15T13:06:32;35.60;;;16.43;;
27113;SDS011;14648;49.730;8.614;2023-02-15T13:11:57;39.27;;;19.80;;
27113;SDS011;14648;49.730;8.614;2023-02-15T13:14:47;35.10;;;18.67;;
27113;SDS011;14648;49.730;8.614;2023-02-15T13:17:29;39.43;;;19.67;;
27113;SDS011;14648;49.730;8.614;2023-02-15T13:20:01;42.50;;;19.60;;
27113;SDS011;14648;49.730;8.614;2023-02-15T13:22:43;39.87;;;20.20;;
27113;SDS011;14648;49.730;8.614;2023-02-15T13:25:17;38.07;;;20.23;;
27113;SDS011;14648;49.730;8.614;2023-02-15T13:27:54;43.33;;;22.07;;
27113;SDS011;14648;49.730;8.614;2023-02-15T13:33:39;41.17;;;20.87;;
27113;SDS011;14648;49.730;8.614;2023-02-15T13:36:05;42.97;;;22.53;;
27113;SDS011;14648;49.730;8.614;2023-02-15T13:39:03;45.60;;;24.20;;
27113;SDS011;14648;49.730;8.614;2023-02-15T13:41:46;42.00;;;20.00;;
27113;SDS011;14648;49.730;8.614;2023-02-15T13:47:49;42.60;;;19.97;;
27113;SDS011;14648;49.730;8.614;2023-02-15T13:50:35;39.03;;;19.60;;
27113;SDS011;14648;49.730;8.614;2023-02-15T13:56:34;41.03;;;21.37;;
27113;SDS011;14648;49.730;8.614;2023-02-15T14:11:22;38.90;;;18.70;;
27113;SDS011;14648;49.730;8.614;2023-02-15T14:14:10;42.40;;;21.00;;
27113;SDS011;14648;49.730;8.614;2023-02-15T14:17:19;39.00;;;20.00;;
27113;SDS011;14648;49.730;8.614;2023-02-15T14:26:03;53.13;;;23.60;;
27113;SDS011;14648;49.730;8.614;2023-02-15T14:28:44;44.57;;;21.27;;
27113;SDS011;14648;49.730;8.614;2023-02-15T14:31:16;46.43;;;23.17;;
27113;SDS011;14648;49.730;8.614;2023-02-15T14:33:55;43.63;;;21.83;;
27113;SDS011;14648;49.730;8.614;2023-02-15T14:36:22;39.67;;;19.07;;
27113;SDS011;14648;49.730;8.614;2023-02-15T14:42:14;44.50;;;22.77;;
27113;SDS011;14648;49.730;8.614;2023-02-15T14:47:36;37.80;;;19.70;;
27113;SDS011;14648;49.730;8.614;2023-02-15T14:56:12;49.40;;;24.00;;
27113;SDS011;14648;49.730;8.614;2023-02-15T15:01:33;44.17;;;22.90;;
27113;SDS011;14648;49.730;8.614;2023-02-15T15:07:04;48.53;;;20.73;;
27113;SDS011;14648;49.730;8.614;2023-02-15T15:17:54;56.43;;;23.83;;
27113;SDS011;14648;49.730;8.614;2023-02-15T15:31:21;58.57;;;26.20;;
27113;SDS011;14648;49.730;8.614;2023-02-15T15:46:19;50.50;;;24.40;;
27113;SDS011;14648;49.730;8.614;2023-02-15T15:49:16;49.40;;;26.03;;
27113;SDS011;14648;49.730;8.614;2023-02-15T15:51:45;49.87;;;24.20;;
27113;SDS011;14648;49.730;8.614;2023-02-15T15:54:14;44.70;;;22.57;;
27113;SDS011;14648;49.730;8.614;2023-02-15T15:56:48;48.70;;;22.83;;
27113;SDS011;14648;49.730;8.614;2023-02-15T15:59:26;47.50;;;24.87;;
27113;SDS011;14648;49.730;8.614;2023-02-15T16:01:55;52.33;;;24.60;;
27113;SDS011;14648;49.730;8.614;2023-02-15T16:04:29;50.03;;;25.60;;
27113;SDS011;14648;49.730;8.614;2023-02-15T16:06:58;54.40;;;25.83;;
27113;SDS011;14648;49.730;8.614;2023-02-15T16:09:41;53.27;;;24.07;;
27113;SDS011;14648;49.730;8.614;2023-02-15T16:12:25;52.97;;;26.40;;
27113;SDS011;14648;49.730;8.614;2023-02-15T16:14:56;50.80;;;24.93;;
27113;SDS011;14648;49.730;8.614;2023-02-15T16:17:27;47.10;;;23.03;;
27113;SDS011;14648;49.730;8.614;2023-02-15T16:20:04;50.93;;;26.20;;
27113;SDS011;14648;49.730;8.614;2023-02-15T16:22:45;48.50;;;25.50;;
27113;SDS011;14648;49.730;8.614;2023-02-15T16:25:35;64.40;;;26.83;;
27113;SDS011;14648;49.730;8.614;2023-02-15T16:31:13;65.10;;;28.10;;
27113;SDS011;14648;49.730;8.614;2023-02-15T16:33:45;54.37;;;27.80;;
27113;SDS011;14648;49.730;8.614;2023-02-15T16:36:13;53.40;;;24.10;;
27113;SDS011;14648;49.730;8.614;2023-02-15T16:41:36;51.10;;;23.50;;
27113;SDS011;14648;49.730;8.614;2023-02-15T16:44:06;54.03;;;25.30;;
27113;SDS011;14648;49.730;8.614;2023-02-15T16:46:40;53.00;;;26.63;;
27113;SDS011;14648;49.730;8.614;2023-02-15T16:49:17;51.63;;;26.30;;
27113;SDS011;14648;49.730;8.614;2023-02-15T16:51:56;49.20;;;24.90;;
27113;SDS011;14648;49.730;8.614;2023-02-15T16:54:25;50.10;;;25.13;;
27113;SDS011;14648;49.730;8.614;2023-02-15T16:56:54;60.97;;;25.40;;
27113;SDS011;14648;49.730;8.614;2023-02-15T16:59:28;53.37;;;26.00;;
27113;SDS011;14648;49.730;8.614;2023-02-15T17:02:10;54.13;;;25.50;;
27113;SDS011;14648;49.730;8.614;2023-02-15T17:04:52;48.97;;;24.80;;
27113;SDS011;14648;49.730;8.614;2023-02-15T17:07:39;48.50;;;23.30;;
27113;SDS011;14648;49.730;8.614;2023-02-15T17:12:55;46.63;;;22.80;;
27113;SDS011;14648;49.730;8.614;2023-02-15T17:15:34;52.53;;;23.77;;
27113;SDS011;14648;49.730;8.614;2023-02-15T17:20:53;51.40;;;22.93;;
27113;SDS011;14648;49.730;8.614;2023-02-15T17:23:25;56.80;;;24.90;;
27113;SDS011;14648;49.730;8.614;2023-02-15T17:26:13;50.53;;;25.27;;
27113;SDS011;14648;49.730;8.614;2023-02-15T17:28:50;60.33;;;25.27;;
27113;SDS011;14648;49.730;8.614;2023-02-15T17:31:24;53.83;;;26.40;;
27113;SDS011;14648;49.730;8.614;2023-02-15T17:33:58;57.87;;;27.60;;
27113;SDS011;14648;49.730;8.614;2023-02-15T17:36:28;60.23;;;26.67;;
27113;SDS011;14648;49.730;8.614;2023-02-15T17:41:47;54.43;;;25.37;;
27113;SDS011;14648;49.730;8.614;2023-02-15T17:44:13;49.93;;;23.97;;
27113;SDS011;14648;49.730;8.614;2023-02-15T17:46:40;54.87;;;25.60;;
27113;SDS011;14648;49.730;8.614;2023-02-15T17:49:10;47.27;;;25.27;;
27113;SDS011;14648;49.730;8.614;2023-02-15T17:51:49;53.90;;;23.40;;
27113;SDS011;14648;49.730;8.614;2023-02-15T17:54:15;45.90;;;23.40;;
27113;SDS011;14648;49.730;8.614;2023-02-15T17:56:59;52.77;;;23.23;;
27113;SDS011;14648;49.730;8.614;2023-02-15T17:59:29;48.27;;;23.50;;
27113;SDS011;14648;49.730;8.614;2023-02-15T18:01:55;41.03;;;22.63;;
27113;SDS011;14648;49.730;8.614;2023-02-15T18:04:39;48.77;;;22.87;;
27113;SDS011;14648;49.730;8.614;2023-02-15T18:07:25;42.80;;;21.23;;
27113;SDS011;14648;49.730;8.614;2023-02-15T18:10:13;48.57;;;23.13;;
27113;SDS011;14648;49.730;8.614;2023-02-15T18:13:00;40.80;;;22.00;;
27113;SDS011;14648;49.730;8.614;2023-02-15T18:15:26;48.57;;;24.50;;